Date,TemperatureHighF,TemperatureAvgF,TemperatureLowF,DewpointHighF,DewpointAvgF,DewpointLowF,HumidityHigh,HumidityAvg,HumidityLow,PressureMaxIn,PressureMinIn,WindSpeedMaxMPH,WindSpeedAvgMPH,GustSpeedMaxMPH,PrecipitationSumIn
2013-1-1,60,51,41,57,50,40,97,95,87,30.20,30.00,13,1,13,1.64
2013-1-2,41,38,35,40,36,32,96,92,88,30.31,30.16,11,1,11,0.00
2013-1-3,47,38,33,32,29,26,88,71,49,30.46,30.29,10,1,10,0.00
2013-1-4,51,41,31,36,32,28,90,70,46,30.54,30.42,8,0,8,0.00
2013-1-5,48,42,36,42,38,32,95,88,64,30.46,30.32,5,0,5,0.13
2013-1-6,52,44,35,43,40,34,95,88,70,30.39,30.29,10,1,10,0.04
2013-1-7,54,42,32,40,36,30,95,81,52,30.42,30.25,9,0,9,0.00
2013-1-8,62,51,38,54,46,36,94,83,69,30.29,30.15,6,0,6,0.08
2013-1-9,62,58,55,62,57,54,97,96,95,30.28,30.18,13,0,13,0.28
2013-1-10,68,64,61,66,63,59,97,96,93,30.24,29.93,19,1,19,0.42
2013-1-11,68,65,61,67,63,60,97,95,88,30.13,30.02,10,0,10,0.06
2013-1-12,77,71,68,69,67,65,96,88,73,30.06,29.88,18,2,18,0.02
2013-1-13,75,58,42,68,55,40,95,90,69,30.19,29.82,22,3,22,0.86
2013-1-14,42,38,34,40,36,32,96,94,90,30.28,30.16,19,2,19,1.34
2013-1-15,39,36,35,38,36,34,96,96,95,30.20,30.06,13,1,13,1.09
2013-1-16,36,35,34,35,34,32,96,96,95,30.22,30.07,15,1,15,0.49
2013-1-17,48,39,32,38,35,31,100,85,60,30.50,30.15,17,1,17,0.22
2013-1-18,54,42,33,40,35,31,92,78,48,30.61,30.43,11,0,11,0.00
2013-1-19,61,45,30,44,38,28,95,79,50,30.43,30.27,7,0,7,0.00
2013-1-20,64,47,33,46,39,32,97,78,43,30.31,30.18,7,0,7,0.00
2013-1-21,57,45,35,47,37,32,96,77,52,30.31,30.18,12,1,12,0.00
2013-1-22,49,42,34,38,30,24,85,64,45,30.44,30.30,13,0,13,0.00
2013-1-23,69,53,37,50,43,33,88,71,45,30.41,30.27,8,0,8,0.00
2013-1-24,66,57,51,58,53,47,94,88,76,30.36,30.23,8,0,8,0.00
2013-1-25,74,61,53,59,55,51,95,82,54,30.25,30.11,12,1,12,0.00
2013-1-26,54,51,47,51,48,45,96,91,84,30.31,30.21,8,0,8,0.00
2013-1-27,73,59,47,60,52,45,96,81,55,30.33,30.20,12,1,12,0.00
2013-1-28,72,64,58,64,59,55,94,86,71,30.28,30.14,11,1,11,0.00
2013-1-29,78,71,63,67,64,61,94,81,66,30.14,29.72,18,3,18,0.00
2013-1-30,73,54,39,67,46,30,96,75,56,30.16,29.66,24,3,24,0.97
2013-1-31,59,46,33,35,30,24,87,57,28,30.32,30.15,14,1,14,0.00
2013-2-1,51,43,36,35,28,20,72,56,33,30.51,30.31,15,1,15,0.00
2013-2-2,68,50,35,49,37,22,90,62,46,30.38,30.19,18,1,18,0.00
2013-2-3,66,49,36,44,36,30,96,67,28,30.30,30.17,15,1,15,0.00
2013-2-4,59,50,41,45,38,32,82,64,47,30.18,30.00,8,0,8,0.00
2013-2-5,63,55,48,58,52,44,96,89,75,30.10,29.97,6,0,6,0.00
2013-2-6,70,57,44,58,52,43,97,85,63,30.19,30.01,7,0,7,0.14
2013-2-7,67,59,52,59,56,50,96,91,74,30.05,29.92,7,0,7,0.01
2013-2-8,58,53,42,56,50,39,96,89,77,30.27,29.97,14,1,14,0.00
2013-2-9,63,49,35,48,40,33,94,74,44,30.31,30.10,8,1,8,0.00
2013-2-10,63,58,54,61,56,47,97,93,78,30.11,29.87,17,2,17,1.98
2013-2-11,61,53,50,60,52,48,97,96,94,30.24,30.02,7,0,7,0.57
2013-2-12,50,49,47,49,48,46,97,96,89,30.16,29.81,25,1,25,1.01
2013-2-13,50,46,36,49,42,34,97,86,73,30.12,29.85,18,2,18,0.00
2013-2-14,60,44,31,44,38,30,97,81,49,30.19,30.10,6,0,6,0.00
2013-2-15,61,47,34,44,38,32,96,73,43,30.23,30.14,12,1,12,0.00
2013-2-16,47,41,31,34,25,17,76,55,32,30.34,30.22,18,2,18,0.00
2013-2-17,60,44,28,37,29,24,85,59,34,30.38,30.21,11,1,11,0.00
2013-2-18,67,54,42,55,46,36,95,75,57,30.24,29.91,22,3,22,0.46
2013-2-19,56,50,39,55,38,28,95,67,36,30.32,29.99,18,2,18,0.07
2013-2-20,54,44,35,32,28,23,84,55,32,30.33,30.13,11,1,11,0.00
2013-2-21,61,50,41,60,41,26,97,74,49,30.13,29.77,15,1,15,2.13
2013-2-22,64,54,48,55,51,46,96,90,61,30.08,29.93,9,1,9,0.12
2013-2-23,58,49,40,48,44,38,98,84,67,30.05,29.94,10,1,10,0.00
2013-2-24,70,52,37,46,41,34,94,68,38,30.08,29.81,11,1,11,0.00
2013-2-25,62,58,52,61,54,43,96,88,59,29.83,29.42,19,1,22,0.59
2013-2-26,56,46,36,52,38,34,92,74,64,29.94,29.51,19,2,19,0.00
2013-2-27,62,47,34,41,37,32,96,71,40,30.08,29.94,15,1,15,0.00
2013-2-28,53,44,36,39,33,29,88,66,44,30.17,30.06,15,1,15,0.00
2013-3-1,47,39,31,34,31,27,94,74,52,30.23,30.13,15,1,15,0.00
2013-3-2,38,35,30,30,27,22,90,73,62,30.30,30.19,18,2,18,0.00
2013-3-3,53,38,26,30,25,21,89,60,32,30.32,30.14,15,1,15,0.00
2013-3-4,71,55,38,55,42,27,80,63,38,30.14,29.88,19,2,19,0.00
2013-3-5,68,57,46,61,48,28,90,75,48,30.24,29.90,21,2,21,0.02
2013-3-6,52,45,39,33,30,26,75,56,43,30.38,30.24,19,2,19,0.00
2013-3-7,60,45,34,37,34,30,87,66,35,30.42,30.29,8,0,8,0.00
2013-3-8,69,52,34,44,38,32,93,64,31,30.37,30.19,8,0,8,0.00
2013-3-9,76,61,50,56,44,30,83,56,21,30.22,29.99,15,2,15,0.00
2013-3-10,77,64,55,63,58,53,96,83,60,30.02,29.83,19,2,19,1.65
2013-3-11,56,49,41,53,42,38,96,79,53,30.07,29.91,16,1,16,0.66
2013-3-12,63,48,34,42,36,30,96,69,31,30.27,30.07,11,1,11,0.00
2013-3-13,58,49,39,39,32,23,92,56,27,30.45,30.27,18,2,18,0.00
2013-3-14,68,51,34,40,33,28,82,54,28,30.49,30.28,12,0,12,0.00
2013-3-15,79,62,46,49,43,37,77,51,30,30.28,30.06,12,1,12,0.00
2013-3-16,79,65,52,56,51,47,90,63,38,30.08,29.92,12,1,12,0.00
2013-3-17,79,65,53,61,56,50,94,75,50,30.00,29.80,15,1,15,0.00
2013-3-18,83,67,54,67,61,50,93,83,52,30.02,29.74,19,2,19,0.12
2013-3-19,71,57,44,50,41,34,92,59,27,30.15,30.02,16,1,16,0.00
2013-3-20,66,55,50,40,32,25,64,43,22,30.24,30.10,14,1,14,0.00
2013-3-21,60,50,41,37,31,23,72,49,32,30.13,29.91,10,1,10,0.00
2013-3-22,52,48,42,48,42,35,94,82,53,29.99,29.86,14,1,14,0.37
2013-3-23,75,62,52,67,58,48,96,88,72,29.88,29.60,9,0,10,0.51
2013-3-24,60,52,41,58,45,30,97,79,52,30.05,29.63,22,3,22,0.17
2013-3-25,51,42,33,31,27,21,81,58,38,30.33,30.05,20,2,20,0.00
2013-3-26,49,40,32,30,27,25,79,61,44,30.44,30.33,14,1,14,0.00
2013-3-27,60,44,28,35,30,25,93,63,29,30.49,30.33,9,0,9,0.00
2013-3-28,71,52,35,41,36,32,91,60,27,30.41,30.27,8,0,8,0.00
2013-3-29,74,60,46,50,45,39,85,60,33,30.33,30.18,9,0,9,0.00
2013-3-30,73,62,54,60,54,49,95,77,47,30.20,30.00,13,1,13,0.08
2013-3-31,72,61,55,64,58,54,96,91,73,30.04,29.85,12,0,12,0.34
2013-4-1,76,63,54,58,53,46,97,74,39,30.14,29.98,9,0,9,0.00
2013-4-2,78,64,50,56,50,43,89,64,40,30.17,30.02,13,1,13,0.00
2013-4-3,59,49,45,47,43,37,94,82,54,30.12,30.02,15,1,15,0.32
2013-4-4,52,49,45,50,47,43,96,93,89,30.08,29.97,13,1,13,0.02
2013-4-5,67,54,44,52,47,43,96,79,52,30.23,30.07,11,1,11,0.00
2013-4-6,77,60,43,52,46,41,96,65,33,30.18,30.03,11,1,11,0.00
2013-4-7,77,64,50,59,54,48,95,73,48,30.13,29.99,13,1,13,0.00
2013-4-8,83,69,58,64,60,56,95,75,49,30.06,29.93,14,2,15,0.00
2013-4-9,86,75,68,71,67,64,93,79,56,30.04,29.94,21,2,21,0.00
2013-4-10,84,75,70,71,68,66,88,77,62,29.99,29.81,16,3,16,0.00
2013-4-11,72,60,48,69,58,45,96,91,82,29.89,29.66,16,2,16,0.85
2013-4-12,72,56,42,51,46,41,96,72,37,30.05,29.89,8,0,11,0.00
2013-4-13,80,62,46,56,50,44,95,67,37,30.09,29.94,9,0,9,0.00
2013-4-14,72,62,56,63,57,50,96,84,70,29.96,29.74,14,1,17,0.40
2013-4-15,85,70,56,70,64,55,96,82,56,29.99,29.85,11,1,11,0.01
2013-4-16,85,77,72,72,70,69,93,80,60,30.10,29.99,12,1,12,0.01
2013-4-17,87,77,69,72,69,67,95,79,57,30.12,29.95,15,1,15,0.00
2013-4-18,84,73,55,71,67,53,93,81,63,29.96,29.71,24,3,24,0.48
2013-4-19,58,51,46,53,42,36,94,72,47,30.23,29.89,14,1,14,0.60
2013-4-20,71,54,40,46,42,37,95,67,35,30.32,30.18,10,0,10,0.00
2013-4-21,74,59,45,48,44,39,89,62,33,30.31,30.16,11,0,11,0.00
2013-4-22,79,63,46,58,51,43,91,67,42,30.20,30.05,11,0,11,0.00
2013-4-23,82,70,63,66,62,57,88,77,58,30.12,29.97,10,1,10,0.00
2013-4-24,69,59,51,64,55,46,95,87,76,30.30,30.00,14,1,14,0.74
2013-4-25,73,57,46,49,45,40,92,66,32,30.40,30.28,13,1,13,0.00
2013-4-26,81,64,48,61,52,43,86,66,44,30.36,30.19,10,0,10,0.00
2013-4-27,83,72,64,68,65,60,94,78,59,30.20,30.01,11,1,11,0.00
2013-4-28,75,68,61,69,64,60,95,89,76,30.04,29.97,9,0,11,0.54
2013-4-29,81,69,61,68,62,58,97,81,49,30.04,29.92,11,0,11,0.01
2013-4-30,81,69,58,67,63,56,96,83,60,29.98,29.90,11,0,11,0.07
2013-5-1,69,65,62,68,63,61,97,96,95,30.00,29.92,14,0,14,0.79
2013-5-2,71,66,62,67,63,61,97,93,83,30.04,29.94,11,0,11,0.26
2013-5-3,65,54,45,64,52,41,96,93,85,30.07,29.92,12,1,12,1.03
2013-5-4,69,53,38,51,43,37,96,74,36,30.06,29.89,14,0,14,0.02
2013-5-5,58,51,45,48,45,41,92,80,63,30.02,29.90,13,1,13,0.00
2013-5-6,67,59,51,57,52,46,90,78,67,30.02,29.96,10,1,10,0.00
2013-5-7,76,63,52,61,56,50,96,79,55,30.08,29.98,7,0,7,0.00
2013-5-8,83,68,54,63,58,52,96,75,46,30.15,30.05,5,0,6,0.00
2013-5-9,84,72,60,66,63,58,94,74,51,30.15,30.02,8,0,8,0.00
2013-5-10,78,69,63,68,65,62,96,86,67,30.07,29.91,12,0,12,0.99
2013-5-11,77,69,63,68,64,58,96,84,68,30.09,29.97,12,0,12,0.00
2013-5-12,74,64,55,58,51,44,94,67,40,30.23,30.09,12,1,14,0.00
2013-5-13,79,64,48,55,47,41,87,57,33,30.33,30.21,8,0,8,0.00
2013-5-14,87,70,54,59,56,50,92,64,33,30.28,30.14,6,0,6,0.00
2013-5-15,85,72,60,64,60,55,87,68,46,30.23,30.03,9,0,9,0.00
2013-5-16,82,72,62,67,63,58,89,75,54,30.07,29.91,12,1,12,0.00
2013-5-17,84,76,71,74,70,67,91,83,68,30.02,29.95,9,1,9,0.00
2013-5-18,89,79,71,74,71,69,94,79,60,30.08,29.97,8,0,8,0.00
2013-5-19,89,79,71,74,71,68,93,78,57,30.04,29.95,10,1,10,0.00
2013-5-20,92,81,74,74,72,70,91,75,53,30.04,29.90,11,1,11,0.00
2013-5-21,92,81,72,73,71,69,92,73,50,29.99,29.80,13,1,13,0.08
2013-5-22,82,71,64,72,67,62,96,87,70,30.01,29.86,20,0,20,0.60
2013-5-23,89,76,66,74,69,64,96,79,49,30.08,29.98,8,0,8,0.00
2013-5-24,85,74,64,69,64,56,91,71,46,30.24,30.08,12,1,12,0.00
2013-5-25,83,70,57,62,57,52,86,66,42,30.31,30.17,9,0,9,0.00
2013-5-26,88,74,62,66,60,53,88,64,35,30.24,30.13,7,0,7,0.00
2013-5-27,90,76,63,71,66,61,94,74,50,30.17,30.02,12,1,12,0.00
2013-5-28,90,77,67,69,64,60,87,66,45,30.10,30.01,11,1,11,0.00
2013-5-29,89,77,69,74,70,60,93,78,57,30.07,29.97,12,1,12,0.00
2013-5-30,87,76,72,75,72,69,94,85,64,30.05,29.95,14,1,14,0.04
2013-5-31,92,80,72,78,73,70,92,80,61,30.05,29.94,11,1,11,0.00
2013-6-1,92,80,73,76,72,70,93,80,57,30.01,29.91,11,0,11,0.00
2013-6-2,84,74,67,74,69,66,96,86,65,30.06,29.92,21,0,21,1.20
2013-6-3,87,77,70,73,70,67,94,78,56,30.00,29.90,11,1,11,0.00
2013-6-4,91,80,69,78,72,65,89,78,60,29.99,29.89,10,0,10,0.00
2013-6-5,92,78,69,77,73,68,96,86,59,29.97,29.81,18,0,18,0.78
2013-6-6,86,73,68,77,70,67,96,91,71,29.91,29.79,19,0,19,0.38
2013-6-7,82,74,68,73,69,66,96,85,68,29.94,29.80,9,0,9,0.07
2013-6-8,85,75,65,74,69,63,96,82,64,30.01,29.93,9,0,9,0.05
2013-6-9,88,76,70,77,72,68,96,87,66,30.01,29.90,10,0,10,0.26
2013-6-10,92,80,70,76,72,68,95,79,51,30.03,29.96,7,0,7,0.00
2013-6-11,92,82,73,77,74,72,95,79,56,30.12,30.02,5,0,5,0.00
2013-6-12,95,84,74,78,74,71,94,76,48,30.12,30.01,6,0,7,0.00
2013-6-13,94,84,75,78,75,71,93,76,57,30.06,29.88,10,0,10,0.00
2013-6-14,89,80,71,77,69,63,87,69,45,30.01,29.89,13,1,13,0.00
2013-6-15,92,79,66,73,68,62,90,71,48,30.06,29.98,8,0,8,0.00
2013-6-16,92,79,72,77,72,69,95,81,54,30.08,29.98,6,0,6,0.29
2013-6-17,92,82,73,78,74,71,96,79,53,30.02,29.91,8,0,8,0.00
2013-6-18,86,79,71,75,72,69,94,82,65,30.00,29.92,8,0,9,0.22
2013-6-19,88,78,71,78,72,70,95,85,65,30.06,29.96,6,0,6,0.02
2013-6-20,91,80,70,78,72,68,96,79,54,30.15,30.05,7,0,7,0.00
2013-6-21,92,81,70,77,72,68,95,77,54,30.17,30.08,9,0,9,0.00
2013-6-22,89,79,71,77,72,68,94,80,54,30.15,30.04,12,0,14,0.19
2013-6-23,90,80,71,76,72,69,95,78,56,30.12,30.04,10,0,10,0.00
2013-6-24,88,78,72,80,73,70,95,85,66,30.16,30.07,10,0,10,0.06
2013-6-25,96,82,73,77,74,71,95,77,49,30.14,30.00,7,0,7,0.00
2013-6-26,94,83,75,76,74,72,93,75,52,30.08,29.95,6,0,6,0.00
2013-6-27,94,84,76,78,75,71,92,74,55,30.03,29.92,7,0,7,0.00
2013-6-28,95,86,77,79,75,68,84,72,56,29.94,29.75,14,0,14,0.23
2013-6-29,92,80,70,77,70,64,96,75,45,29.83,29.72,8,0,9,0.01
2013-6-30,88,78,68,71,66,62,93,69,46,29.85,29.75,15,0,15,0.00
2013-7-1,86,77,67,68,66,64,92,71,52,29.96,29.83,13,0,13,0.00
2013-7-2,88,77,69,68,65,62,90,69,46,30.06,29.94,9,0,9,0.00
2013-7-3,90,77,65,69,66,62,92,70,46,30.09,29.99,9,0,9,0.00
2013-7-4,90,78,69,75,70,67,95,78,56,30.04,29.95,9,0,9,0.00
2013-7-5,84,77,71,75,72,68,93,86,70,30.06,29.99,12,0,12,0.00
2013-7-6,87,77,69,76,72,68,96,85,67,30.08,29.99,11,0,11,0.00
2013-7-7,91,79,73,77,73,71,94,83,60,30.12,30.03,6,0,6,0.00
2013-7-8,93,82,73,77,73,69,95,78,49,30.19,30.10,7,0,7,0.00
2013-7-9,96,83,74,78,75,71,93,78,52,30.20,30.07,7,0,7,0.00
2013-7-10,94,84,76,78,75,73,93,76,55,30.12,29.97,10,0,10,0.00
2013-7-11,81,77,70,76,74,69,96,90,78,30.05,29.92,10,0,10,1.00
2013-7-12,92,80,71,77,71,67,96,78,50,29.99,29.90,12,0,12,0.00
2013-7-13,89,79,70,71,67,64,87,68,45,30.01,29.93,11,0,11,0.00
2013-7-14,90,78,70,77,71,67,94,81,59,30.07,29.95,12,0,12,0.12
2013-7-15,89,78,70,79,73,68,96,85,62,30.17,30.04,9,0,9,0.10
2013-7-16,89,80,72,77,73,70,95,81,61,30.24,30.16,13,1,15,0.00
2013-7-17,94,83,72,78,74,71,95,76,51,30.28,30.15,9,0,9,0.00
2013-7-18,89,78,73,78,73,70,94,86,64,30.19,30.05,10,0,10,0.00
2013-7-19,91,79,72,78,73,70,96,84,60,30.12,29.98,9,0,9,0.00
2013-7-20,93,81,72,79,73,69,95,78,54,30.03,29.91,7,0,7,0.00
2013-7-21,92,80,73,76,72,69,93,78,53,30.04,29.96,11,0,11,0.00
2013-7-22,93,82,74,78,74,71,94,79,58,30.06,29.96,9,0,9,0.00
2013-7-23,92,84,77,78,75,72,93,76,54,30.04,29.89,12,0,12,0.00
2013-7-24,85,80,75,76,74,70,93,83,73,29.98,29.90,5,0,5,0.03
2013-7-25,91,79,73,75,71,63,95,77,48,30.08,29.94,9,0,9,0.01
2013-7-26,90,78,68,72,69,64,93,73,48,30.09,29.98,8,0,8,0.00
2013-7-27,82,75,70,76,72,69,96,89,78,30.00,29.90,10,0,10,0.91
2013-7-28,91,79,71,77,73,70,96,82,57,30.05,29.93,8,0,8,0.00
2013-7-29,93,82,71,79,73,70,95,77,50,30.14,30.04,7,0,7,0.00
2013-7-30,97,84,75,79,75,72,93,75,47,30.17,30.07,7,0,7,0.00
2013-7-31,93,85,78,76,72,61,90,68,36,30.11,29.97,8,0,8,0.00
2013-8-1,96,85,78,79,75,72,90,72,54,30.03,29.93,12,0,12,0.00
2013-8-2,96,84,73,77,74,71,93,74,51,30.02,29.96,6,0,6,0.00
2013-8-3,94,84,77,78,76,74,91,76,55,30.08,30.00,7,0,7,0.00
2013-8-4,94,83,76,81,76,73,94,82,57,30.11,30.01,11,0,11,0.19
2013-8-5,97,83,75,82,76,72,96,81,46,30.06,29.95,8,0,8,0.08
2013-8-6,96,84,76,78,76,74,95,77,52,30.01,29.91,16,0,16,0.00
2013-8-7,98,86,76,78,75,73,93,72,49,30.00,29.88,5,0,5,0.00
2013-8-8,99,87,77,78,76,74,93,73,47,29.99,29.89,8,0,8,0.00
2013-8-9,98,84,76,79,76,73,94,80,48,30.06,29.93,12,0,12,0.11
2013-8-10,94,80,75,81,76,73,96,87,58,30.12,30.03,8,0,8,0.91
2013-8-11,91,81,75,78,74,72,96,81,57,30.15,30.05,6,0,6,0.00
2013-8-12,94,82,75,78,74,71,95,80,53,30.14,30.00,6,0,6,0.00
2013-8-13,86,77,74,79,74,71,95,91,77,30.06,29.95,11,0,11,0.44
2013-8-14,86,78,73,76,73,69,96,85,65,30.03,29.95,12,0,12,0.16
2013-8-15,87,76,67,73,67,64,92,75,55,30.05,29.97,9,0,9,0.00
2013-8-16,87,76,68,74,68,64,95,78,54,30.04,29.96,9,0,9,1.04
2013-8-17,83,74,68,73,69,67,96,87,61,30.07,30.01,12,0,12,0.00
2013-8-18,79,73,69,72,70,67,94,88,73,30.10,30.03,14,0,14,0.00
2013-8-19,86,76,72,75,72,70,93,86,64,30.09,30.01,7,0,7,0.01
2013-8-20,91,79,70,77,73,68,96,83,60,30.10,30.02,8,0,8,0.01
2013-8-21,89,80,73,79,75,71,96,86,66,30.17,30.07,11,0,11,0.00
2013-8-22,92,80,72,79,74,70,95,85,57,30.14,30.01,13,0,13,0.44
2013-8-23,92,79,73,78,75,72,97,87,61,30.07,29.98,16,0,16,0.10
2013-8-24,89,78,73,80,74,71,96,89,64,30.16,30.03,18,0,18,0.20
2013-8-25,88,78,72,77,73,70,96,86,67,30.24,30.15,12,0,12,0.00
2013-8-26,89,78,70,72,68,64,95,74,49,30.26,30.14,11,0,11,0.00
2013-8-27,88,75,64,69,65,62,94,73,48,30.19,30.08,7,0,7,0.00
2013-8-28,88,76,64,70,66,62,95,73,49,30.14,30.05,7,0,7,0.00
2013-8-29,92,79,68,73,69,65,94,74,50,30.13,30.01,7,0,7,0.00
2013-8-30,93,82,71,75,71,68,92,71,50,30.07,29.94,7,0,7,0.00
2013-8-31,95,83,73,76,72,70,92,73,49,30.00,29.88,6,0,6,0.00
2013-9-1,96,84,74,74,72,68,91,70,44,29.97,29.85,7,0,7,0.00
2013-9-2,92,82,75,81,74,72,92,77,56,29.99,29.87,5,0,8,0.13
2013-9-3,94,82,74,77,74,72,94,77,54,30.01,29.90,8,0,8,0.00
2013-9-4,95,82,72,77,72,66,94,72,42,30.10,29.98,8,0,8,0.00
2013-9-5,95,84,74,76,72,64,95,71,38,30.14,30.03,6,0,6,0.00
2013-9-6,94,82,73,78,71,59,94,72,33,30.14,30.01,9,0,9,0.00
2013-9-7,94,81,71,73,69,64,92,70,38,30.09,29.98,10,0,10,0.00
2013-9-8,95,81,69,73,68,66,94,68,42,30.03,29.94,5,0,8,0.00
2013-9-9,96,82,70,73,70,65,93,69,39,30.09,29.99,7,0,7,0.00
2013-9-10,95,82,72,75,71,69,92,72,46,30.15,30.04,6,0,6,0.00
2013-9-11,93,81,71,72,70,66,94,70,43,30.17,30.05,7,0,7,0.00
2013-9-12,94,81,70,74,68,65,94,68,41,30.10,29.93,11,0,11,0.00
2013-9-13,92,80,72,76,69,66,86,71,52,29.96,29.85,9,0,9,0.11
2013-9-14,86,73,64,64,59,54,81,63,36,30.04,29.95,9,0,9,0.00
2013-9-15,92,76,60,67,61,55,88,63,35,30.11,30.03,8,0,8,0.00
2013-9-16,93,80,69,74,68,64,91,69,42,30.15,30.03,8,0,8,0.00
2013-9-17,93,79,67,68,64,60,88,63,38,30.13,30.00,13,0,13,0.00
2013-9-18,89,79,70,75,70,60,93,76,60,30.12,30.01,10,0,12,0.00
2013-9-19,92,80,70,75,71,68,95,77,50,30.10,29.97,12,1,12,0.00
2013-9-20,88,77,71,79,73,69,96,89,65,30.04,29.81,18,0,18,1.57
2013-9-21,77,72,68,73,69,60,97,91,78,29.87,29.79,12,0,12,3.15
2013-9-22,78,68,59,62,58,55,88,73,50,29.92,29.83,11,0,11,0.00
2013-9-23,84,71,56,72,65,54,95,82,64,29.92,29.85,10,0,10,0.00
2013-9-24,78,74,71,75,72,70,96,93,89,29.90,29.80,9,0,9,1.83
2013-9-25,84,75,67,73,67,62,97,80,48,29.87,29.80,7,0,7,0.00
2013-9-26,85,73,62,69,65,61,96,79,51,29.99,29.85,7,0,7,0.00
2013-9-27,84,74,66,71,67,64,96,81,57,30.08,29.99,8,0,8,0.00
2013-9-28,83,72,64,67,63,61,90,75,52,30.13,30.04,7,0,7,0.00
2013-9-29,74,70,64,69,66,62,94,87,79,30.09,29.98,6,0,6,0.00
2013-9-30,84,74,68,74,69,66,95,87,71,30.01,29.92,12,0,12,0.01
2013-10-1,86,75,67,74,70,66,95,84,58,30.09,29.99,8,0,8,0.00
2013-10-2,84,76,70,75,71,69,96,86,67,30.11,30.00,8,0,8,0.04
2013-10-3,84,76,70,76,72,68,95,89,73,30.08,29.98,7,0,7,0.09
2013-10-4,88,79,72,76,72,70,95,83,59,30.08,30.00,12,0,12,0.00
2013-10-5,87,78,72,76,72,70,95,84,64,30.05,29.93,11,0,11,0.00
2013-10-6,75,68,60,72,63,53,96,83,60,30.01,29.88,13,0,13,0.08
2013-10-7,72,64,56,56,53,50,83,70,54,30.10,29.99,11,1,11,0.00
2013-10-8,75,63,54,57,54,51,90,74,49,30.11,30.03,9,0,9,0.00
2013-10-9,78,65,55,69,61,53,96,88,71,30.15,30.06,10,0,10,0.00
2013-10-10,81,69,60,70,64,59,97,86,63,30.16,30.03,6,0,6,0.00
2013-10-11,83,71,63,71,66,62,97,84,57,30.09,30.00,5,0,5,0.00
2013-10-12,87,72,64,73,67,62,97,86,58,30.12,30.02,12,0,12,0.00
2013-10-13,82,74,68,72,69,66,96,86,65,30.23,30.10,6,0,6,0.00
2013-10-14,84,72,64,66,64,61,94,78,50,30.18,30.06,8,0,8,0.00
2013-10-15,83,73,64,69,65,62,93,79,56,30.09,29.97,8,0,8,0.00
2013-10-16,76,70,64,71,68,63,96,92,81,30.01,29.93,8,0,8,0.24
2013-10-17,64,62,54,63,59,53,96,92,84,30.07,29.95,10,0,10,0.03
2013-10-18,70,60,51,60,56,49,97,87,62,30.12,29.97,7,0,7,0.01
2013-10-19,70,61,54,60,56,49,95,84,67,30.10,29.96,10,0,10,0.01
2013-10-20,67,54,44,50,46,37,95,75,36,30.15,30.03,7,0,7,0.00
2013-10-21,72,58,45,60,53,44,96,84,57,30.12,30.01,5,0,5,0.00
2013-10-22,70,61,53,60,56,50,96,84,64,30.05,29.98,7,0,7,0.00
2013-10-23,68,57,49,51,47,42,93,73,40,30.18,30.05,10,0,10,0.00
2013-10-24,75,59,46,57,50,43,93,72,48,30.33,30.14,13,0,13,0.00
2013-10-25,60,52,44,47,40,36,82,66,42,30.49,30.33,14,0,14,0.00
2013-10-26,72,54,40,50,43,36,94,68,37,30.37,30.17,6,0,6,0.00
2013-10-27,69,61,52,59,54,47,95,80,67,30.18,30.08,5,0,7,0.19
2013-10-28,75,66,60,68,63,58,97,91,75,30.22,30.11,5,0,5,0.08
2013-10-29,78,69,63,67,64,61,96,84,63,30.27,30.17,9,0,9,0.00
2013-10-30,79,70,64,68,65,62,95,86,68,30.23,30.04,14,0,14,0.00
2013-10-31,72,70,64,70,68,62,97,93,89,30.04,29.76,14,2,14,0.97
2013-11-1,71,62,53,63,54,47,96,79,44,29.96,29.86,7,0,7,0.00
2013-11-2,66,58,53,52,48,43,93,71,48,30.24,29.95,12,1,12,0.00
2013-11-3,64,53,45,47,44,41,91,74,50,30.32,30.17,7,0,12,0.00
2013-11-4,68,55,43,55,49,41,95,81,60,30.33,30.22,9,0,9,0.00
2013-11-5,76,64,54,61,56,51,89,75,56,30.29,30.15,16,1,16,0.00
2013-11-6,76,66,56,68,60,52,95,84,75,30.19,30.08,12,0,12,0.06
2013-11-7,59,52,46,55,44,41,94,76,54,30.39,30.18,16,1,16,0.00
2013-11-8,61,51,39,45,41,36,91,71,46,30.42,30.24,12,0,12,0.00
2013-11-9,61,53,46,52,47,41,92,80,66,30.32,30.22,4,0,4,0.01
2013-11-10,68,58,50,54,51,48,92,79,56,30.36,30.27,7,0,7,0.00
2013-11-11,72,57,46,56,49,44,96,79,44,30.31,30.19,6,0,6,0.00
2013-11-12,53,47,37,51,42,28,96,81,67,30.60,30.25,18,1,18,0.00
2013-11-13,52,40,31,30,27,22,83,63,32,30.66,30.48,6,1,15,0.00
2013-11-14,62,45,28,43,34,25,92,68,43,30.48,30.20,8,0,8,0.00
2013-11-15,64,56,50,60,52,41,96,87,72,30.20,30.05,6,0,6,0.06
2013-11-16,74,66,56,68,63,55,97,91,78,30.09,29.97,13,1,13,0.00
2013-11-17,78,72,67,72,69,65,96,92,83,29.98,29.86,10,1,10,0.00
2013-11-18,73,63,54,71,49,38,96,63,31,30.21,29.98,12,1,12,0.04
2013-11-19,58,50,40,42,34,30,75,54,36,30.28,30.14,10,0,12,0.00
2013-11-20,69,51,36,48,41,31,87,70,44,30.19,30.08,9,0,9,0.00
2013-11-21,72,60,51,63,56,48,95,88,72,30.25,30.15,11,1,11,0.00
2013-11-22,66,62,57,64,61,56,97,95,91,30.29,30.17,9,0,9,0.67
2013-11-23,57,48,40,56,46,32,97,92,72,30.49,30.26,18,2,18,0.24
2013-11-24,46,38,31,32,26,23,79,62,40,30.56,30.39,19,1,19,0.00
2013-11-25,44,40,36,43,35,24,96,82,62,30.40,30.04,11,0,11,3.25
2013-11-26,45,41,38,44,40,35,97,96,89,30.12,29.84,16,1,17,0.78
2013-11-27,40,35,30,36,27,23,92,72,55,30.47,30.11,16,2,16,0.01
2013-11-28,46,34,25,29,25,11,88,71,26,30.54,30.45,6,0,6,0.00
2013-11-29,55,38,26,34,29,25,95,72,35,30.60,30.48,6,0,6,0.00
2013-11-30,63,43,27,38,32,26,95,70,27,30.51,30.30,6,0,6,0.00
2013-12-1,64,52,38,51,44,34,89,74,56,30.31,30.01,7,0,7,0.00
2013-12-2,72,61,55,62,55,50,94,83,68,30.01,29.75,5,0,7,0.00
2013-12-3,77,66,54,64,61,52,96,85,63,29.80,29.69,11,1,11,0.00
2013-12-4,79,71,66,68,66,64,94,85,66,29.94,29.80,9,1,12,0.00
2013-12-5,80,67,47,70,63,45,95,87,66,30.03,29.89,13,1,13,0.00
2013-12-6,46,41,34,45,40,32,96,95,93,30.35,30.00,20,1,20,0.19
2013-12-7,35,34,32,33,32,31,96,93,90,30.47,30.31,15,1,15,0.00
2013-12-8,43,39,35,42,38,33,97,96,94,30.32,30.12,4,0,4,0.74
2013-12-9,43,41,37,42,40,36,97,96,94,30.25,30.14,11,1,11,0.34
2013-12-10,45,36,29,36,32,27,96,84,60,30.46,30.21,15,1,16,0.02
2013-12-11,56,40,28,38,32,26,95,77,39,30.53,30.41,11,0,11,0.00
2013-12-12,50,38,30,33,27,22,88,67,35,30.62,30.44,11,0,11,0.00
2013-12-13,53,42,28,47,33,24,91,71,44,30.44,29.93,18,1,18,0.05
2013-12-14,60,51,42,56,49,36,97,91,80,30.16,29.84,15,1,15,0.34
2013-12-15,42,37,29,36,32,27,94,84,76,30.36,30.16,14,1,14,0.01
2013-12-16,62,41,28,41,32,27,96,75,34,30.39,30.26,7,0,7,0.00
2013-12-17,66,46,34,42,37,31,96,73,40,30.37,30.26,4,0,8,0.00
2013-12-18,69,49,34,43,38,32,96,70,34,30.41,30.24,7,0,7,0.00
2013-12-19,68,57,43,57,50,37,87,77,68,30.24,30.05,13,1,13,0.00
2013-12-20,74,66,58,67,62,55,93,87,75,30.07,29.94,14,2,14,0.00
2013-12-21,78,71,57,69,66,55,95,84,69,29.94,29.67,20,3,23,1.32
2013-12-22,62,56,44,59,54,42,97,93,77,30.24,29.82,10,0,10,0.22
2013-12-23,44,39,33,42,33,29,91,81,66,30.55,30.24,17,2,17,0.00
2013-12-24,46,36,29,30,28,25,88,74,49,30.61,30.45,12,1,12,0.00
2013-12-25,49,35,24,31,26,21,89,73,42,30.47,30.35,8,0,8,0.00
2013-12-26,55,41,29,38,34,27,95,78,52,30.46,30.36,8,0,8,0.00
2013-12-27,54,44,32,38,34,30,94,72,44,30.50,30.37,8,0,8,0.00
2013-12-28,46,45,42,45,41,33,96,87,62,30.37,29.99,6,0,6,0.86
2013-12-29,60,48,43,45,43,41,96,84,52,30.17,30.01,9,0,9,0.00
2013-12-30,45,43,37,44,40,34,94,89,83,30.42,30.14,7,0,7,0.00
2013-12-31,45,39,35,36,34,32,90,82,64,30.51,30.35,8,0,8,0.00
2014-1-1,62,48,36,51,43,34,95,85,66,30.35,30.06,8,0,8,0.10
2014-1-2,55,44,31,54,38,23,97,80,59,30.43,29.99,19,2,19,0.37